Time;durP1;ratioP1;P1;durP2;ratioP2;P2;SDS_P1;SDS_P2;PMS_P1;PMS_P2;Temp;Humidity;BMP_temperature;BMP_pressure;BME280_temperature;BME280_humidity;BME280_pressure;Samples;Min_cycle;Max_cycle;Signal;HPM_P1;HPM_P2
2021/06/26 00:02:04;;;;;;;19.15;6.85;;;;;;;24.50;51.49;99538.53;5054908;28;20045;-84
2021/06/26 00:04:30;;;;;;;12.73;5.97;;;;;;;24.54;51.38;99522.56;5054326;28;20127;-84
2021/06/26 00:06:56;;;;;;;12.10;6.32;;;;;;;24.54;51.40;99513.38;5037051;28;20550;-84
2021/06/26 00:09:23;;;;;;;19.15;6.28;;;;;;;24.47;51.55;99491.00;5034805;28;20037;-85
2021/06/26 00:11:49;;;;;;;20.00;6.38;;;;;;;24.46;51.89;99495.81;5034653;28;20396;-84
2021/06/26 00:14:16;;;;;;;21.02;7.30;;;;;;;24.32;52.68;99481.84;5016864;28;20457;-85
2021/06/26 00:16:43;;;;;;;15.95;6.22;;;;;;;24.33;53.04;99487.00;5034427;28;20487;-84
2021/06/26 00:19:09;;;;;;;23.38;6.88;;;;;;;24.37;52.67;99510.19;5043972;28;20033;-87
2021/06/26 00:21:35;;;;;;;20.60;7.10;;;;;;;24.33;53.49;99503.00;5034445;28;20395;-84
2021/06/26 00:24:01;;;;;;;20.42;7.43;;;;;;;24.29;53.10;99493.81;5034434;28;20052;-84
2021/06/26 00:26:27;;;;;;;15.38;6.60;;;;;;;24.23;53.24;99489.84;5037109;28;20040;-84
2021/06/26 00:29:00;;;;;;;17.35;6.43;;;;;;;24.20;53.80;99501.81;5054370;28;20041;-84
2021/06/26 00:31:26;;;;;;;14.95;6.40;;;;;;;24.19;53.50;99512.19;5052644;28;20090;-85
2021/06/26 00:33:52;;;;;;;9.93;6.35;;;;;;;24.11;54.33;99502.22;5050878;28;20128;-84
2021/06/26 00:36:18;;;;;;;13.90;7.20;;;;;;;24.14;54.65;99502.22;5054179;28;20136;-84
2021/06/26 00:38:44;;;;;;;18.00;6.68;;;;;;;24.02;55.10;99496.25;5033632;28;20049;-84
2021/06/26 00:41:10;;;;;;;17.52;6.50;;;;;;;23.87;55.49;99489.84;5032887;28;20041;-88
2021/06/26 00:43:36;;;;;;;17.08;7.20;;;;;;;23.84;56.11;99499.84;5032867;28;20072;-84
2021/06/26 00:46:05;;;;;;;16.27;6.70;;;;;;;23.63;56.08;99469.06;5049432;28;20079;-83
2021/06/26 00:48:31;;;;;;;14.15;7.07;;;;;;;23.62;57.57;99504.56;5035031;28;20049;-84
2021/06/26 00:50:57;;;;;;;11.40;6.85;;;;;;;23.59;57.16;99505.34;5033913;28;20588;-84
2021/06/26 00:53:23;;;;;;;13.35;6.82;;;;;;;23.57;57.43;99490.19;5033976;28;20049;-84
2021/06/26 00:55:54;;;;;;;20.65;7.47;;;;;;;23.59;56.50;99487.81;5032651;28;20128;-84
2021/06/26 00:58:23;;;;;;;13.85;6.60;;;;;;;23.54;57.46;99469.47;5040838;28;20052;-83
2021/06/26 01:00:51;;;;;;;17.98;7.28;;;;;;;23.59;57.04;99483.03;5052815;28;20048;-84
2021/06/26 01:03:17;;;;;;;15.55;6.93;;;;;;;23.57;57.79;99490.19;5053642;28;20041;-84
2021/06/26 01:05:44;;;;;;;12.60;6.88;;;;;;;23.54;57.65;99485.41;5052300;28;20423;-84
2021/06/26 01:08:11;;;;;;;17.13;7.18;;;;;;;23.59;58.28;99483.03;5050615;28;20982;-84
2021/06/26 01:10:37;;;;;;;18.50;7.38;;;;;;;23.63;57.96;99483.81;5053474;28;20553;-84
2021/06/26 01:13:04;;;;;;;10.68;6.80;;;;;;;23.64;58.72;99484.63;5052232;28;20044;-84
2021/06/26 01:15:31;;;;;;;16.77;7.20;;;;;;;23.59;59.12;99487.81;5053413;28;20037;-83
2021/06/26 01:17:57;;;;;;;20.90;7.50;;;;;;;23.45;59.15;99494.97;5053380;28;20037;-84
2021/06/26 01:20:29;;;;;;;13.63;7.72;;;;;;;23.43;58.48;99488.19;5037173;28;20053;-84
2021/06/26 01:23:00;;;;;;;15.65;7.38;;;;;;;23.36;58.72;99494.53;5033420;28;20040;-87
2021/06/26 01:25:33;;;;;;;16.02;7.22;;;;;;;23.42;58.46;99489.38;5033285;28;20037;-83
2021/06/26 01:28:02;;;;;;;15.00;7.18;;;;;;;23.50;59.21;99507.72;5033485;28;20064;-84
2021/06/26 01:30:31;;;;;;;13.73;7.05;;;;;;;23.51;59.02;99508.53;5045718;28;20450;-84
2021/06/26 01:32:58;;;;;;;13.95;7.72;;;;;;;23.49;59.30;99500.56;5053056;28;20037;-84
2021/06/26 01:35:25;;;;;;;18.63;7.18;;;;;;;23.50;59.90;99498.56;5053122;28;20059;-84
2021/06/26 01:37:51;;;;;;;15.85;7.65;;;;;;;23.45;59.84;99492.19;5053029;28;20047;-84
2021/06/26 01:40:25;;;;;;;15.15;7.68;;;;;;;23.47;59.96;99507.72;5043054;28;20103;-84
2021/06/26 01:42:54;;;;;;;18.03;7.77;;;;;;;23.45;59.75;99499.75;5033062;28;20506;-84
2021/06/26 01:45:22;;;;;;;18.52;6.97;;;;;;;23.47;59.82;99502.13;5032943;28;20037;-84
2021/06/26 01:47:52;;;;;;;19.67;7.97;;;;;;;23.37;60.45;99482.19;5031875;28;20041;-86
2021/06/26 01:50:20;;;;;;;16.50;8.10;;;;;;;23.49;60.53;99494.97;5033813;28;20049;-83
2021/06/26 01:52:47;;;;;;;19.15;8.15;;;;;;;23.48;60.63;99487.81;5048197;28;20076;-85
2021/06/26 01:55:15;;;;;;;19.67;8.30;;;;;;;23.48;61.08;99489.78;5032713;28;20660;-84
2021/06/26 01:57:43;;;;;;;23.95;8.05;;;;;;;23.31;61.48;99460.66;5032687;28;20129;-84
2021/06/26 02:00:10;;;;;;;18.75;8.90;;;;;;;23.34;60.70;99471.03;5031425;28;20056;-84
2021/06/26 02:02:41;;;;;;;27.55;9.48;;;;;;;23.41;61.19;99459.88;5062915;28;20045;-84
2021/06/26 02:05:10;;;;;;;18.83;9.13;;;;;;;23.45;60.74;99471.84;5031429;28;20072;-84
2021/06/26 02:07:36;;;;;;;26.92;9.85;;;;;;;23.39;60.78;99473.44;5031326;28;20041;-84
2021/06/26 02:10:06;;;;;;;29.15;9.35;;;;;;;23.24;61.11;99467.00;5031243;28;20045;-84
2021/06/26 02:12:32;;;;;;;27.48;9.45;;;;;;;23.33;61.49;99481.38;5043671;28;20051;-85
2021/06/26 02:14:58;;;;;;;26.38;9.70;;;;;;;23.24;61.53;99483.75;5052273;28;20044;-83
2021/06/26 02:17:24;;;;;;;33.47;9.93;;;;;;;23.25;61.77;99479.78;5052276;28;20067;-85
2021/06/26 02:19:51;;;;;;;32.20;9.80;;;;;;;23.30;61.92;99473.00;5052150;28;20041;-84
2021/06/26 02:22:18;;;;;;;31.20;11.15;;;;;;;23.32;61.93;99468.63;5046807;28;20095;-84
2021/06/26 02:24:44;;;;;;;33.20;10.98;;;;;;;23.34;61.88;99462.66;5040861;28;20040;-84
2021/06/26 02:27:10;;;;;;;26.15;10.48;;;;;;;23.21;61.57;99449.09;5051835;28;20040;-84
2021/06/26 02:29:37;;;;;;;34.92;10.57;;;;;;;23.33;61.75;99463.84;5052032;28;20037;-84
2021/06/26 02:32:04;;;;;;;30.08;10.80;;;;;;;23.33;62.04;99456.28;5052080;28;20041;-84
2021/06/26 02:34:32;;;;;;;38.83;10.70;;;;;;;23.41;62.21;99466.28;5050181;28;20493;-84
2021/06/26 02:36:58;;;;;;;41.53;10.18;;;;;;;23.41;62.21;99465.44;5051812;28;20041;-84
2021/06/26 02:39:24;;;;;;;;;;;;;;;23.48;61.82;99470.25;5052143;28;20056;-84
2021/06/26 02:41:50;;;;;;;34.72;10.77;;;;;;;23.45;62.08;99457.91;5051732;28;19921;-84
2021/06/26 02:44:19;;;;;;;40.53;13.90;;;;;;;23.37;61.49;99459.88;5050868;28;20049;-84
2021/06/26 02:46:46;;;;;;;57.70;17.48;;;;;;;23.41;61.72;99471.84;5050088;28;20476;-86
2021/06/26 02:49:12;;;;;;;49.90;17.85;;;;;;;23.39;61.97;99473.44;5051691;28;20039;-84
2021/06/26 02:51:38;;;;;;;55.03;18.23;;;;;;;23.39;62.54;99473.44;5051994;28;20053;-84
2021/06/26 02:54:05;;;;;;;42.85;17.42;;;;;;;23.31;62.63;99449.50;5050451;28;20043;-85
2021/06/26 02:56:31;;;;;;;58.17;19.00;;;;;;;23.38;62.86;99471.84;5049947;28;20076;-84
2021/06/26 02:58:57;;;;;;;49.00;19.52;;;;;;;23.40;62.84;99472.22;5050431;28;20540;-83
2021/06/26 03:01:24;;;;;;;42.25;17.95;;;;;;;23.43;62.14;99479.81;5051465;28;20391;-84
2021/06/26 03:03:52;;;;;;;53.72;18.60;;;;;;;23.42;62.28;99475.44;5050383;28;20482;-83
2021/06/26 03:06:17;;;;;;;45.42;18.70;;;;;;;23.49;62.75;99485.81;5050471;28;20069;-85
2021/06/26 03:08:43;;;;;;;54.13;17.88;;;;;;;23.50;62.49;99467.88;5050955;28;20032;-84
2021/06/26 03:11:10;;;;;;;36.80;16.33;;;;;;;23.58;62.52;99470.28;5050994;28;20063;-84
2021/06/26 03:13:37;;;;;;;44.33;17.10;;;;;;;23.64;62.76;99465.91;5051468;28;20048;-84
2021/06/26 03:16:03;;;;;;;50.75;16.83;;;;;;;23.75;62.76;99468.72;5048613;28;20056;-86
2021/06/26 03:18:29;;;;;;;56.47;16.63;;;;;;;23.79;61.72;99463.94;5051524;28;20033;-84
2021/06/26 03:20:55;;;;;;;57.05;17.08;;;;;;;23.86;61.29;99468.72;5051322;28;20053;-84
2021/06/26 03:23:22;;;;;;;56.85;17.20;;;;;;;23.96;60.81;99479.09;5054253;28;20529;-82
2021/06/26 03:25:48;;;;;;;;;;;;;;;24.00;60.74;99479.88;5063393;28;20048;-84
2021/06/26 03:28:15;;;;;;;50.60;16.80;;;;;;;23.95;60.37;99455.16;5055462;28;19920;-84
2021/06/26 03:30:43;;;;;;;52.28;17.20;;;;;;;24.14;60.91;99474.28;5055586;28;20465;-87
2021/06/26 03:33:10;;;;;;;57.20;17.00;;;;;;;24.15;60.27;99459.13;5054705;28;20041;-85
2021/06/26 03:35:37;;;;;;;44.47;16.70;;;;;;;24.27;59.67;99459.88;5053953;28;20037;-85
2021/06/26 03:38:03;;;;;;;54.33;16.73;;;;;;;24.40;60.23;99463.84;5053675;28;20036;-84
2021/06/26 03:40:30;;;;;;;58.67;15.68;;;;;;;24.41;60.20;99459.91;5055216;28;20067;-87
2021/06/26 03:42:56;;;;;;;52.28;16.27;;;;;;;24.50;60.25;99460.28;5055290;28;20045;-86
2021/06/26 03:45:22;;;;;;;68.90;17.10;;;;;;;24.60;59.21;99462.25;5055413;28;20051;-87
2021/06/26 03:47:50;;;;;;;62.80;19.58;;;;;;;24.60;58.88;99448.28;5038510;28;20789;-85
2021/06/26 03:50:16;;;;;;;62.15;19.60;;;;;;;24.83;58.48;99463.75;5033935;28;20510;-87
2021/06/26 03:52:43;;;;;;;56.03;19.15;;;;;;;24.89;58.02;99461.31;5035114;28;20077;-84
2021/06/26 03:55:09;;;;;;;67.00;20.15;;;;;;;25.01;57.76;99463.69;5034954;28;20410;-87
2021/06/26 03:57:36;;;;;;;57.70;20.27;;;;;;;25.06;57.26;99464.03;5035865;28;20025;-86
2021/06/26 04:00:04;;;;;;;58.33;18.45;;;;;;;25.19;57.50;99469.19;5034913;28;20099;-86
2021/06/26 04:02:32;;;;;;;48.40;14.63;;;;;;;25.23;57.10;99450.38;5050076;28;20064;-87
2021/06/26 04:04:58;;;;;;;56.33;13.95;;;;;;;25.22;56.99;99443.19;5034835;28;20474;-87
2021/06/26 04:07:25;;;;;;;41.10;14.45;;;;;;;25.24;57.27;99449.97;5046429;28;20398;-86
2021/06/26 04:09:50;;;;;;;41.08;14.23;;;;;;;25.45;56.65;99459.44;5054646;28;20041;-87
2021/06/26 04:12:17;;;;;;;39.08;12.63;;;;;;;25.35;56.43;99441.50;5053506;28;20033;-88
2021/06/26 04:14:43;;;;;;;37.30;12.70;;;;;;;25.37;56.36;99430.72;5051934;28;20051;-87
2021/06/26 04:17:09;;;;;;;54.83;15.32;;;;;;;25.65;56.21;99457.69;5034657;28;20041;-86
2021/06/26 04:19:35;;;;;;;35.90;13.15;;;;;;;25.67;56.13;99448.91;5033355;28;20518;-86
2021/06/26 04:22:02;;;;;;;38.28;13.30;;;;;;;25.87;56.23;99457.56;5034586;28;20041;-85
2021/06/26 04:24:27;;;;;;;43.67;12.35;;;;;;;25.92;55.59;99457.09;5033233;28;20049;-88
2021/06/26 04:26:54;;;;;;;35.08;10.43;;;;;;;25.94;54.31;99452.69;5034793;28;20038;-86
2021/06/26 04:29:20;;;;;;;38.15;11.18;;;;;;;25.96;53.97;99441.06;5034427;28;20037;-88
2021/06/26 04:31:47;;;;;;;26.33;9.27;;;;;;;26.15;53.85;99462.09;5034273;28;20041;-85
2021/06/26 04:34:13;;;;;;;35.97;10.00;;;;;;;26.15;54.34;99460.09;5041893;28;20499;-87
2021/06/26 04:36:41;;;;;;;37.70;10.30;;;;;;;26.26;54.02;99468.41;5056312;28;20064;-87
2021/06/26 04:39:07;;;;;;;27.10;8.48;;;;;;;26.18;52.74;99456.44;5053877;28;20135;-88
2021/06/26 04:41:35;;;;;;;29.27;8.75;;;;;;;26.29;52.76;99475.97;5053698;28;20098;-87
2021/06/26 04:44:02;;;;;;;27.08;8.95;;;;;;;26.30;54.16;99468.38;5032506;28;20465;-86
2021/06/26 04:46:29;;;;;;;35.03;10.18;;;;;;;26.24;54.02;99468.81;5032743;28;20083;-86
2021/06/26 04:48:55;;;;;;;;;;;;;;;26.30;54.16;99476.78;5034258;28;20049;-86
2021/06/26 04:51:23;;;;;;;30.42;10.93;;;;;;;26.20;54.24;99453.25;5043418;28;20011;-86
2021/06/26 04:53:50;;;;;;;28.70;10.27;;;;;;;26.25;54.46;99452.78;5051044;28;20033;-86
2021/06/26 04:56:17;;;;;;;26.48;9.77;;;;;;;26.51;54.39;99468.16;5052297;28;20069;-86
2021/06/26 04:58:43;;;;;;;35.05;9.93;;;;;;;26.67;53.61;99467.59;5053777;28;20490;-86
2021/06/26 05:01:12;;;;;;;38.53;12.25;;;;;;;26.76;53.98;99473.50;5053602;28;20140;-86
2021/06/26 05:03:40;;;;;;;44.80;12.25;;;;;;;26.91;52.99;99482.50;5052458;28;20051;-86
2021/06/26 05:06:06;;;;;;;38.40;11.73;;;;;;;27.10;52.12;99483.88;5052531;28;20044;-87
2021/06/26 05:08:33;;;;;;;32.47;9.35;;;;;;;27.19;51.49;99472.97;5035147;28;20091;-86
2021/06/26 05:11:02;;;;;;;29.38;10.27;;;;;;;27.42;50.70;99486.28;5053620;28;20063;-88
2021/06/26 05:13:29;;;;;;;40.10;11.00;;;;;;;27.54;49.75;99488.47;5053496;28;20123;-86
2021/06/26 05:15:57;;;;;;;40.58;11.85;;;;;;;27.58;49.57;99461.16;5044261;28;20048;-86
2021/06/26 05:18:23;;;;;;;34.67;11.02;;;;;;;27.84;50.31;99484.03;5033477;28;20052;-85
2021/06/26 05:20:50;;;;;;;32.80;10.52;;;;;;;27.89;49.41;99472.31;5042333;28;20597;-85
2021/06/26 05:23:19;;;;;;;30.35;10.10;;;;;;;27.96;49.43;99474.22;5053363;28;20129;-86
2021/06/26 05:25:46;;;;;;;33.35;10.60;;;;;;;27.96;49.42;99451.75;5051055;28;20036;-86
2021/06/26 05:28:13;;;;;;;29.27;9.65;;;;;;;28.00;48.86;99458.88;5046556;28;20132;-86
2021/06/26 05:30:42;;;;;;;24.92;9.68;;;;;;;27.99;48.94;99470.56;5053138;28;20036;-86
2021/06/26 05:33:08;;;;;;;30.08;10.20;;;;;;;27.98;49.03;99466.16;5051956;28;20040;-86
2021/06/26 05:35:35;;;;;;;43.97;9.82;;;;;;;27.97;48.79;99467.38;5051861;28;20041;-88
2021/06/26 05:38:01;;;;;;;28.58;9.05;;;;;;;27.98;47.95;99455.72;5051585;28;20035;-86
2021/06/26 05:40:27;;;;;;;34.10;8.52;;;;;;;27.99;47.27;99451.69;5052904;28;20041;-86
2021/06/26 05:42:53;;;;;;;34.35;8.20;;;;;;;28.08;45.71;99457.53;5051761;28;20041;-86
2021/06/26 05:45:20;;;;;;;38.63;11.60;;;;;;;28.12;46.19;99454.66;5048441;28;20036;-86
2021/06/26 05:47:46;;;;;;;29.00;10.68;;;;;;;28.16;47.87;99452.59;5044476;28;20556;-87
2021/06/26 05:50:12;;;;;;;43.28;16.05;;;;;;;28.19;46.60;99459.38;5030608;28;20041;-86
2021/06/26 05:53:04;;;;;;;45.30;17.33;;;;;;;28.20;47.72;99460.94;5032847;28;20082;-86
2021/06/26 05:55:30;;;;;;;40.97;16.83;;;;;;;28.18;47.96;99455.78;5033656;28;20057;-87
2021/06/26 05:57:57;;;;;;;44.00;14.70;;;;;;;28.32;48.24;99455.50;5051449;28;20131;-86
2021/06/26 06:00:24;;;;;;;39.05;13.60;;;;;;;28.38;48.68;99449.34;5051046;28;20494;-87
2021/06/26 06:02:50;;;;;;;26.25;10.57;;;;;;;28.45;46.47;99455.69;5050567;28;20037;-85
2021/06/26 06:05:17;;;;;;;28.35;9.40;;;;;;;28.47;45.53;99458.84;5052138;28;20414;-86
2021/06/26 06:07:44;;;;;;;24.52;8.43;;;;;;;28.43;47.17;99432.03;5051264;28;20097;-87
2021/06/26 06:10:13;;;;;;;14.52;5.68;;;;;;;28.44;42.94;99427.97;5051207;28;20040;-86
2021/06/26 06:12:40;;;;;;;14.80;5.90;;;;;;;28.54;42.88;99441.03;5050941;28;20043;-88
2021/06/26 06:15:09;;;;;;;18.05;5.97;;;;;;;28.56;44.81;99430.16;5051128;28;20495;-88
2021/06/26 06:17:35;;;;;;;12.30;5.40;;;;;;;28.67;43.93;99436.34;5051856;28;20402;-86
2021/06/26 06:20:05;;;;;;;11.65;5.63;;;;;;;28.75;44.39;99440.63;5052009;28;20163;-86
2021/06/26 06:22:32;;;;;;;15.65;5.03;;;;;;;28.66;41.32;99440.41;5052074;28;20045;-85
2021/06/26 06:24:58;;;;;;;13.93;4.50;;;;;;;28.66;41.08;99434.78;5033935;28;20041;-86
2021/06/26 06:27:24;;;;;;;;;;;;;;;28.73;42.11;99434.63;5048181;28;20117;-87
2021/06/26 06:29:52;;;;;;;12.05;4.90;;;;;;;28.76;42.20;99436.56;5032190;28;19979;-86
2021/06/26 06:32:19;;;;;;;;;;;;;;;28.79;42.43;99432.88;5046619;28;20037;-86
2021/06/26 06:34:45;;;;;;;13.02;5.28;;;;;;;28.78;43.52;99434.13;5048764;28;19960;-87
2021/06/26 06:37:11;;;;;;;13.63;5.63;;;;;;;28.82;43.07;99427.63;5050402;28;20083;-87
2021/06/26 06:39:37;;;;;;;11.00;5.60;;;;;;;28.78;41.82;99410.81;5050074;28;20548;-86
2021/06/26 06:42:03;;;;;;;12.10;5.30;;;;;;;28.94;42.71;99439.00;5058101;28;20048;-86
2021/06/26 06:44:29;;;;;;;12.77;4.93;;;;;;;29.02;42.79;99440.47;5056602;28;20069;-87
2021/06/26 06:46:55;;;;;;;17.17;5.40;;;;;;;29.09;43.61;99444.34;5047338;28;20487;-88
2021/06/26 06:49:22;;;;;;;12.32;4.97;;;;;;;29.18;43.73;99427.66;5031786;28;20052;-87
2021/06/26 06:51:48;;;;;;;13.80;6.32;;;;;;;29.24;42.88;99425.91;5046134;28;20078;-85
2021/06/26 06:54:14;;;;;;;13.00;5.88;;;;;;;29.21;43.04;99413.50;5050616;28;20083;-86
2021/06/26 06:56:40;;;;;;;20.10;5.80;;;;;;;29.37;42.90;99421.19;5050385;28;20064;-86
2021/06/26 06:59:07;;;;;;;13.77;5.93;;;;;;;29.44;42.76;99425.84;5050985;28;20517;-86
2021/06/26 07:01:32;;;;;;;17.45;5.40;;;;;;;29.46;42.25;99429.00;5050001;28;20135;-86
2021/06/26 07:03:59;;;;;;;12.25;5.43;;;;;;;29.42;40.46;99409.38;5050861;28;20032;-86
2021/06/26 07:06:25;;;;;;;10.70;5.10;;;;;;;29.50;41.39;99418.44;5050450;28;20457;-89
2021/06/26 07:08:51;;;;;;;;;;;;;;;29.60;41.92;99419.44;5050344;28;20048;-86
2021/06/26 07:11:17;;;;;;;14.25;5.35;;;;;;;29.54;42.60;99396.63;5050910;28;19921;-88
2021/06/26 07:13:43;;;;;;;16.88;5.00;;;;;;;29.68;42.42;99409.59;5050502;28;20157;-86
2021/06/26 07:16:09;;;;;;;24.75;5.60;;;;;;;29.80;42.83;99420.16;5050197;28;20068;-86
2021/06/26 07:18:36;;;;;;;14.27;5.25;;;;;;;29.86;39.05;99423.22;5051296;28;20045;-89
2021/06/26 07:21:03;;;;;;;13.15;5.20;;;;;;;29.89;40.11;99428.75;5050478;28;20499;-86
2021/06/26 07:23:31;;;;;;;15.00;5.20;;;;;;;29.90;39.08;99418.28;5051066;28;20044;-89
2021/06/26 07:25:57;;;;;;;15.90;6.25;;;;;;;29.89;39.88;99397.75;5049874;28;20037;-86
2021/06/26 07:28:23;;;;;;;12.15;5.78;;;;;;;30.05;38.77;99418.72;5050703;28;20049;-87
2021/06/26 07:30:49;;;;;;;15.38;5.88;;;;;;;30.06;39.56;99415.44;5051471;28;20041;-86
2021/06/26 07:33:17;;;;;;;19.98;6.40;;;;;;;30.00;39.10;99403.13;5050100;28;20113;-87
2021/06/26 07:35:43;;;;;;;16.77;5.88;;;;;;;30.05;39.43;99413.06;5051317;28;20036;-86
2021/06/26 07:38:09;;;;;;;28.23;5.70;;;;;;;30.11;40.42;99414.91;5048040;28;20041;-86
2021/06/26 07:40:35;;;;;;;17.23;6.53;;;;;;;30.20;40.13;99425.59;5050022;28;20041;-86
2021/06/26 07:43:02;;;;;;;13.15;6.00;;;;;;;30.10;38.88;99423.78;5048055;28;20170;-86
2021/06/26 07:45:28;;;;;;;18.38;6.35;;;;;;;29.92;38.50;99404.53;5039479;28;20099;-88
2021/06/26 07:47:55;;;;;;;15.95;5.60;;;;;;;29.88;37.84;99406.66;5031637;28;20107;-86
2021/06/26 07:50:21;;;;;;;15.27;5.22;;;;;;;30.02;37.25;99434.47;5031449;28;20136;-92
2021/06/26 07:52:48;;;;;;;15.07;5.10;;;;;;;29.95;36.97;99435.44;5035770;28;20379;-92
2021/06/26 07:55:14;;;;;;;17.85;4.97;;;;;;;29.95;37.43;99423.38;5051181;28;20041;-87
2021/06/26 07:57:40;;;;;;;24.85;5.35;;;;;;;29.93;37.67;99428.66;5051152;28;20067;-86
2021/06/26 08:00:08;;;;;;;16.58;5.28;;;;;;;29.91;36.77;99434.75;5051043;28;20145;-86
2021/06/26 08:02:35;;;;;;;18.73;5.38;;;;;;;29.93;37.79;99437.13;5049328;28;20044;-86
2021/06/26 08:05:01;;;;;;;15.45;5.35;;;;;;;30.03;37.50;99430.41;5049808;28;20653;-91
2021/06/26 08:07:28;;;;;;;15.02;4.85;;;;;;;30.04;37.48;99419.94;5049579;28;20079;-89
2021/06/26 08:09:54;;;;;;;13.90;5.60;;;;;;;30.24;37.74;99422.66;5051535;28;20129;-87
2021/06/26 08:12:21;;;;;;;13.70;5.85;;;;;;;30.27;37.93;99418.97;5034153;28;20037;-87
2021/06/26 08:14:47;;;;;;;15.98;6.03;;;;;;;30.40;38.63;99433.91;5052969;28;20048;-87
2021/06/26 08:17:16;;;;;;;27.05;5.72;;;;;;;30.32;37.09;99421.22;5053294;28;20483;-88
2021/06/26 08:19:42;;;;;;;17.45;5.70;;;;;;;30.45;36.67;99416.41;5054428;28;20414;-87
2021/06/26 08:22:09;;;;;;;22.85;5.72;;;;;;;30.51;38.07;99414.63;5053343;28;20090;-86
2021/06/26 08:24:35;;;;;;;15.02;5.43;;;;;;;30.53;37.18;99414.16;5042375;28;20056;-87
2021/06/26 08:27:02;;;;;;;;;;;;;;;30.67;36.05;99430.72;5033644;28;20045;-87
2021/06/26 08:29:28;;;;;;;20.08;5.55;;;;;;;30.67;36.39;99425.84;5034515;28;20394;-85
2021/06/26 08:31:55;;;;;;;13.77;5.75;;;;;;;30.54;35.05;99396.81;5034553;28;20407;-86
2021/06/26 08:34:21;;;;;;;17.05;5.57;;;;;;;30.74;36.26;99424.84;5051577;28;20048;-86
2021/06/26 08:36:50;;;;;;;14.88;5.93;;;;;;;30.76;35.79;99410.28;5052534;28;20045;-86
2021/06/26 08:39:19;;;;;;;26.92;6.65;;;;;;;30.79;36.86;99400.94;5052754;28;20060;-87
2021/06/26 08:41:50;;;;;;;21.95;6.43;;;;;;;30.92;36.25;99409.44;5053932;28;20079;-86
2021/06/26 08:44:19;;;;;;;17.27;6.32;;;;;;;30.85;37.17;99390.69;5054133;28;20454;-86
2021/06/26 08:46:47;;;;;;;14.85;5.93;;;;;;;30.99;35.81;99404.34;5038353;28;20410;-87
2021/06/26 08:49:13;;;;;;;17.67;6.15;;;;;;;31.05;35.13;99407.41;5055562;28;20496;-87
2021/06/26 08:51:40;;;;;;;18.77;5.28;;;;;;;30.94;32.81;99401.31;5073873;28;20044;-86
2021/06/26 08:54:15;;;;;;;22.35;5.90;;;;;;;30.78;32.63;99399.38;5072932;28;20033;-86
2021/06/26 08:56:42;;;;;;;12.40;5.32;;;;;;;30.73;31.96;99402.72;5048178;28;20579;-86
2021/06/26 08:59:08;;;;;;;19.27;5.90;;;;;;;30.72;32.07;99395.50;5049191;28;20037;-85
2021/06/26 09:01:37;;;;;;;24.88;5.82;;;;;;;30.84;33.43;99397.59;5033628;28;20049;-86
2021/06/26 09:04:05;;;;;;;21.17;5.40;;;;;;;30.90;32.03;99401.44;5033731;28;20045;-88
2021/06/26 09:06:34;;;;;;;24.17;5.40;;;;;;;31.05;30.95;99404.59;5034984;28;20033;-85
2021/06/26 09:09:02;;;;;;;10.93;4.93;;;;;;;31.01;31.30;99390.59;5032630;28;20435;-88
2021/06/26 09:11:28;;;;;;;11.38;4.85;;;;;;;31.00;31.32;99388.22;5033880;28;20050;-84
2021/06/26 09:13:53;;;;;;;18.70;5.35;;;;;;;30.95;30.33;99388.78;5032358;28;20533;-85
2021/06/26 09:16:20;;;;;;;27.17;5.25;;;;;;;31.00;32.01;99386.19;5033689;28;20071;-86
2021/06/26 09:18:48;;;;;;;27.95;5.60;;;;;;;31.08;31.84;99379.06;5033300;28;20059;-85
2021/06/26 09:21:25;;;;;;;20.27;5.68;;;;;;;31.18;32.09;99382.81;5031797;28;20045;-85
2021/06/26 09:24:08;;;;;;;18.45;5.45;;;;;;;31.32;32.13;99382.34;5045181;28;20044;-86
2021/06/26 09:26:40;;;;;;;11.38;4.70;;;;;;;31.42;30.47;99374.78;5053299;28;20107;-87
2021/06/26 09:29:12;;;;;;;13.65;5.57;;;;;;;31.40;31.31;99371.63;5036259;28;20079;-88
2021/06/26 09:32:08;;;;;;;10.15;4.65;;;;;;;31.57;33.21;99381.53;5033177;28;20061;-86
2021/06/26 09:34:44;;;;;;;17.63;5.45;;;;;;;31.57;33.19;99370.25;4994496;28;20052;-86
2021/06/26 09:37:12;;;;;;;24.75;6.53;;;;;;;31.71;33.22;99379.47;5020666;28;20037;-87
2021/06/26 09:39:43;;;;;;;17.08;6.30;;;;;;;31.72;33.24;99367.75;5013219;28;20176;-86
2021/06/26 09:42:27;;;;;;;21.98;7.07;;;;;;;31.61;32.62;99372.94;5030278;28;20410;-88
2021/06/26 09:45:05;;;;;;;16.60;6.72;;;;;;;31.77;33.04;99380.50;5029831;28;20075;-82
2021/06/26 09:47:40;;;;;;;14.52;6.45;;;;;;;31.73;33.59;99371.34;5029864;28;20041;-80
2021/06/26 09:50:10;;;;;;;40.15;7.65;;;;;;;31.76;32.52;99373.25;5024840;28;20458;-82
2021/06/26 09:52:38;;;;;;;17.63;7.30;;;;;;;31.73;32.79;99365.69;5013217;28;20037;-79
2021/06/26 09:55:40;;;;;;;19.90;7.32;;;;;;;31.62;32.43;99365.25;5029542;28;20052;-82
2021/06/26 09:58:11;;;;;;;20.63;7.35;;;;;;;31.66;32.07;99365.94;4916105;29;20067;-80
2021/06/26 10:00:42;;;;;;;22.17;7.00;;;;;;;31.73;32.04;99368.53;5009073;28;20414;-79
2021/06/26 10:03:11;;;;;;;18.48;7.35;;;;;;;31.81;32.81;99364.97;5030062;28;20037;-80
2021/06/26 10:05:38;;;;;;;15.85;7.30;;;;;;;31.85;31.92;99362.03;5029336;28;20050;-83
2021/06/26 10:08:06;;;;;;;23.50;7.88;;;;;;;31.76;33.30;99342.97;5028647;28;20037;-80
2021/06/26 10:10:32;;;;;;;37.00;8.27;;;;;;;31.85;32.69;99355.59;5034513;28;20080;-80
2021/06/26 10:12:59;;;;;;;15.02;7.13;;;;;;;31.82;33.24;99357.28;5051245;28;20098;-82
2021/06/26 10:15:27;;;;;;;16.45;7.38;;;;;;;31.81;31.98;99358.53;5051539;28;20041;-80
2021/06/26 10:17:53;;;;;;;17.02;7.50;;;;;;;31.88;31.37;99352.66;5052155;28;20036;-79
2021/06/26 10:20:22;;;;;;;16.33;7.47;;;;;;;31.86;32.03;99357.97;5050497;28;20040;-80
2021/06/26 10:22:54;;;;;;;22.60;7.65;;;;;;;31.92;31.74;99353.34;5032045;28;20042;-79
2021/06/26 10:25:21;;;;;;;14.75;7.25;;;;;;;31.99;33.39;99353.09;5036331;28;20033;-80
2021/06/26 10:27:47;;;;;;;13.27;7.18;;;;;;;32.02;32.90;99340.84;5050754;28;20112;-80
2021/06/26 10:30:20;;;;;;;;;;;;;;;32.21;32.13;99349.47;5051777;28;20049;-80
2021/06/26 10:32:58;;;;;;;15.88;6.95;;;;;;;32.36;31.87;99341.25;5049183;28;19994;-81
2021/06/26 10:35:32;;;;;;;14.93;6.80;;;;;;;32.48;31.56;99352.53;5049717;28;20041;-80
2021/06/26 10:38:07;;;;;;;13.90;6.95;;;;;;;32.48;31.02;99346.88;5049510;28;20040;-81
2021/06/26 10:40:50;;;;;;;17.05;7.10;;;;;;;32.43;31.81;99343.84;5047589;28;20091;-81
2021/06/26 10:43:29;;;;;;;15.48;6.88;;;;;;;32.60;33.14;99341.56;5051195;28;20037;-80
2021/06/26 10:46:17;;;;;;;14.40;7.60;;;;;;;32.64;31.15;99339.38;5050318;28;20044;-79
2021/06/26 10:49:02;;;;;;;19.38;7.72;;;;;;;32.65;31.79;99341.78;5050259;28;20045;-81
2021/06/26 10:51:41;;;;;;;15.07;6.70;;;;;;;32.49;30.57;99342.78;5050234;28;20486;-80
2021/06/26 10:54:13;;;;;;;18.00;7.45;;;;;;;32.42;31.05;99343.06;5050753;28;20049;-79
2021/06/26 10:56:40;;;;;;;17.77;7.20;;;;;;;32.46;31.29;99338.03;5051706;28;20098;-81
2021/06/26 10:59:18;;;;;;;17.08;8.13;;;;;;;32.43;30.79;99338.19;5049924;28;20116;-81
2021/06/26 11:02:04;;;;;;;31.23;8.38;;;;;;;32.36;30.98;99332.75;5042958;28;20041;-81
2021/06/26 11:04:31;;;;;;;26.90;8.10;;;;;;;32.57;31.48;99346.13;5051131;28;20037;-80
2021/06/26 11:07:09;;;;;;;17.58;7.85;;;;;;;32.61;31.17;99326.94;5050882;28;20037;-80
2021/06/26 11:09:42;;;;;;;18.45;7.20;;;;;;;32.74;30.45;99330.47;5046331;28;20033;-80
2021/06/26 11:12:19;;;;;;;20.30;7.45;;;;;;;32.88;30.23;99329.16;5047923;28;20565;-81
2021/06/26 11:14:57;;;;;;;19.38;7.30;;;;;;;32.97;31.07;99314.25;5031511;28;20045;-81
2021/06/26 11:17:36;;;;;;;18.17;7.32;;;;;;;33.15;32.46;99308.66;5049930;28;20039;-80
2021/06/26 11:20:06;;;;;;;18.13;7.40;;;;;;;33.35;32.05;99310.28;5040899;28;20049;-80
2021/06/26 11:22:32;;;;;;;15.68;8.02;;;;;;;33.45;30.55;99292.03;5049797;28;20064;-79
2021/06/26 11:24:58;;;;;;;17.27;7.70;;;;;;;33.57;31.34;99296.00;5049509;28;20509;-81
2021/06/26 11:27:25;;;;;;;18.73;7.53;;;;;;;33.65;30.69;99305.78;5049585;28;20048;-80
2021/06/26 11:30:01;;;;;;;14.60;7.32;;;;;;;33.68;30.24;99299.16;5049685;28;20033;-82